Aeroporto :
LOGIN :

Iscrizione | Disclaimer

   EN    FR    IT 

 










Sommario :    VFR   VFR Marginale   IFR   IFR Intensivo   IFR Molto Intensivo
Visibilità : 
Base nubi : 
>= 8 km
>= 3000ft
5 / 8 km
1000 / 3000 ft
1500m / 5 km
500 / 1000 ft
800 / 1500m
200 / 500 ft
< 800m
< 200 ft
Simboli :   Temporali  Nebbia  Neve Forte  Precipitazioni Forti  Vento > 20 kt
SIGMETs :   Varie  Temporali  Ghiacco  Turbolenza  Onda orograficha  Ceneri Vulcaniche






- Altitudine del aeroporto : 16 ft
- Codice IATA : AAE


DABB - Annaba-Rabah Bitat

ULTIMO METAR :
  • 032030Z 34005KT 9999 FEW020 FEW023TCU SCT033 11/10 Q1014

METARs OBSOLETI :
  • 032000Z 33006KT 9999 FEW020 FEW023TCU SCT033 11/10 Q1014
  • 031900Z 35007KT 9999 FEW020 FEW023TCU SCT033 13/10 Q1013
  • 031830Z 36007KT 9999 FEW020 FEW023TCU SCT033 13/10 Q1013
  • 031800Z 01007KT 9999 FEW020 FEW023TCU SCT033 13/10 Q1012

TAF TAF DABB
Valido dal 03 a 18 ore il 04 a 18 ore UTC


031700Z 0318/0418 02008KT 8000 FEW020 BKN033
PROB30
TEMPO 0318/0324 FEW023CB
PROB30
TEMPO 0318/0322 4000 -TSRA
PROB30
TEMPO 0403/0409 4000 RA FEW020CB



MetMap, La meteo Aeronautica in un colpo d'occhio ! - Copyright ORBIFLY Dicembre 2007 - Disclaimer

ORBIFLY MET'MAP TEAM :

Programmazione e sviluppo : Alexandra Zaïnal
Concezione : Baudouin d'Aumeries
Aiuto per la programmazione : Marc-Olivier Méhu
Supporto tecnico e logistico : Manuel Goepfert
Aiuto per la traduzione : Arnaldo La Scala

Contatto : metmap@orbifly.com




FONTI E CREDITI :

   NOAA